sensor_id;sensor_type;location;lat;lon;timestamp;P1;durP1;ratioP1;P2;durP2;ratioP2
26690;SDS011;14307;51.718;8.938;2023-03-14T00:01:07;16.58;;;15.10;;
26690;SDS011;14307;51.718;8.938;2023-03-14T00:03:35;16.05;;;14.93;;
26690;SDS011;14307;51.718;8.938;2023-03-14T00:06:03;15.85;;;14.73;;
26690;SDS011;14307;51.718;8.938;2023-03-14T00:08:30;16.08;;;14.80;;
26690;SDS011;14307;51.718;8.938;2023-03-14T00:10:57;16.38;;;15.02;;
26690;SDS011;14307;51.718;8.938;2023-03-14T00:13:24;16.23;;;14.95;;
26690;SDS011;14307;51.718;8.938;2023-03-14T00:15:50;15.60;;;14.73;;
26690;SDS011;14307;51.718;8.938;2023-03-14T00:18:17;16.67;;;15.60;;
26690;SDS011;14307;51.718;8.938;2023-03-14T00:20:45;16.98;;;15.98;;
26690;SDS011;14307;51.718;8.938;2023-03-14T00:23:12;16.80;;;15.80;;
26690;SDS011;14307;51.718;8.938;2023-03-14T00:25:39;16.75;;;15.50;;
26690;SDS011;14307;51.718;8.938;2023-03-14T00:28:05;16.75;;;15.65;;
26690;SDS011;14307;51.718;8.938;2023-03-14T00:30:32;16.52;;;15.50;;
26690;SDS011;14307;51.718;8.938;2023-03-14T00:32:59;16.35;;;15.35;;
26690;SDS011;14307;51.718;8.938;2023-03-14T00:35:26;16.48;;;15.07;;
26690;SDS011;14307;51.718;8.938;2023-03-14T00:37:53;16.88;;;15.85;;
26690;SDS011;14307;51.718;8.938;2023-03-14T00:40:19;16.80;;;15.60;;
26690;SDS011;14307;51.718;8.938;2023-03-14T00:42:47;17.05;;;15.68;;
26690;SDS011;14307;51.718;8.938;2023-03-14T00:45:14;16.40;;;15.18;;
26690;SDS011;14307;51.718;8.938;2023-03-14T00:47:41;16.65;;;15.35;;
26690;SDS011;14307;51.718;8.938;2023-03-14T00:50:12;16.45;;;15.32;;
26690;SDS011;14307;51.718;8.938;2023-03-14T00:52:38;16.35;;;15.25;;
26690;SDS011;14307;51.718;8.938;2023-03-14T00:55:05;17.02;;;15.35;;
26690;SDS011;14307;51.718;8.938;2023-03-14T00:57:33;16.15;;;14.95;;
26690;SDS011;14307;51.718;8.938;2023-03-14T01:00:00;16.70;;;15.00;;
26690;SDS011;14307;51.718;8.938;2023-03-14T01:02:27;15.98;;;14.73;;
26690;SDS011;14307;51.718;8.938;2023-03-14T01:04:55;15.50;;;14.40;;
26690;SDS011;14307;51.718;8.938;2023-03-14T01:07:22;16.10;;;14.70;;
26690;SDS011;14307;51.718;8.938;2023-03-14T01:09:50;15.80;;;14.55;;
26690;SDS011;14307;51.718;8.938;2023-03-14T01:12:18;15.73;;;14.52;;
26690;SDS011;14307;51.718;8.938;2023-03-14T01:14:45;16.00;;;14.85;;
26690;SDS011;14307;51.718;8.938;2023-03-14T01:17:12;15.65;;;14.65;;
26690;SDS011;14307;51.718;8.938;2023-03-14T01:19:39;15.85;;;14.82;;
26690;SDS011;14307;51.718;8.938;2023-03-14T01:22:06;16.13;;;14.65;;
26690;SDS011;14307;51.718;8.938;2023-03-14T01:24:33;16.98;;;15.85;;
26690;SDS011;14307;51.718;8.938;2023-03-14T01:27:00;16.02;;;14.88;;
26690;SDS011;14307;51.718;8.938;2023-03-14T01:29:27;16.55;;;15.35;;
26690;SDS011;14307;51.718;8.938;2023-03-14T01:31:54;16.58;;;15.32;;
26690;SDS011;14307;51.718;8.938;2023-03-14T01:34:21;17.33;;;15.75;;
26690;SDS011;14307;51.718;8.938;2023-03-14T01:36:48;16.95;;;15.63;;
26690;SDS011;14307;51.718;8.938;2023-03-14T01:39:15;17.80;;;16.55;;
26690;SDS011;14307;51.718;8.938;2023-03-14T01:41:41;16.45;;;15.40;;
26690;SDS011;14307;51.718;8.938;2023-03-14T01:44:09;16.95;;;15.50;;
26690;SDS011;14307;51.718;8.938;2023-03-14T01:46:41;17.70;;;16.10;;
26690;SDS011;14307;51.718;8.938;2023-03-14T01:51:59;16.95;;;15.70;;
26690;SDS011;14307;51.718;8.938;2023-03-14T01:54:32;17.80;;;16.20;;
26690;SDS011;14307;51.718;8.938;2023-03-14T02:00:13;18.45;;;16.80;;
26690;SDS011;14307;51.718;8.938;2023-03-14T02:02:46;17.60;;;16.23;;
26690;SDS011;14307;51.718;8.938;2023-03-14T02:05:19;17.40;;;16.13;;
26690;SDS011;14307;51.718;8.938;2023-03-14T02:08:01;17.15;;;16.02;;
26690;SDS011;14307;51.718;8.938;2023-03-14T02:10:43;16.65;;;15.50;;
26690;SDS011;14307;51.718;8.938;2023-03-14T02:13:13;17.42;;;15.73;;
26690;SDS011;14307;51.718;8.938;2023-03-14T02:15:44;17.10;;;15.90;;
26690;SDS011;14307;51.718;8.938;2023-03-14T02:18:31;18.02;;;16.33;;
26690;SDS011;14307;51.718;8.938;2023-03-14T02:21:44;17.60;;;16.20;;
26690;SDS011;14307;51.718;8.938;2023-03-14T02:27:13;17.55;;;16.33;;
26690;SDS011;14307;51.718;8.938;2023-03-14T02:29:48;17.33;;;16.02;;
26690;SDS011;14307;51.718;8.938;2023-03-14T02:32:52;17.90;;;16.40;;
26690;SDS011;14307;51.718;8.938;2023-03-14T02:35:22;17.58;;;16.02;;
26690;SDS011;14307;51.718;8.938;2023-03-14T02:38:15;17.52;;;15.98;;
26690;SDS011;14307;51.718;8.938;2023-03-14T02:40:59;18.13;;;16.83;;
26690;SDS011;14307;51.718;8.938;2023-03-14T02:43:28;17.15;;;15.95;;
26690;SDS011;14307;51.718;8.938;2023-03-14T02:45:59;16.83;;;15.70;;
26690;SDS011;14307;51.718;8.938;2023-03-14T02:48:28;17.42;;;15.98;;
26690;SDS011;14307;51.718;8.938;2023-03-14T02:50:56;16.85;;;15.75;;
26690;SDS011;14307;51.718;8.938;2023-03-14T02:53:27;16.35;;;15.27;;
26690;SDS011;14307;51.718;8.938;2023-03-14T02:55:59;16.42;;;15.30;;
26690;SDS011;14307;51.718;8.938;2023-03-14T02:58:28;16.90;;;15.60;;
26690;SDS011;14307;51.718;8.938;2023-03-14T03:01:04;17.08;;;15.77;;
26690;SDS011;14307;51.718;8.938;2023-03-14T03:03:31;17.45;;;15.90;;
26690;SDS011;14307;51.718;8.938;2023-03-14T03:05:58;15.75;;;14.55;;
26690;SDS011;14307;51.718;8.938;2023-03-14T03:08:26;12.73;;;11.43;;
26690;SDS011;14307;51.718;8.938;2023-03-14T03:10:54;7.43;;;7.03;;
26690;SDS011;14307;51.718;8.938;2023-03-14T03:13:23;6.05;;;5.47;;
26690;SDS011;14307;51.718;8.938;2023-03-14T03:15:52;5.20;;;3.47;;
26690;SDS011;14307;51.718;8.938;2023-03-14T03:18:19;3.15;;;2.40;;
26690;SDS011;14307;51.718;8.938;2023-03-14T03:20:46;6.07;;;2.45;;
26690;SDS011;14307;51.718;8.938;2023-03-14T03:23:14;1.45;;;1.35;;
26690;SDS011;14307;51.718;8.938;2023-03-14T03:25:41;2.88;;;1.10;;
26690;SDS011;14307;51.718;8.938;2023-03-14T03:28:08;5.80;;;1.17;;
26690;SDS011;14307;51.718;8.938;2023-03-14T03:30:38;2.45;;;1.40;;
26690;SDS011;14307;51.718;8.938;2023-03-14T03:33:05;5.85;;;1.77;;
26690;SDS011;14307;51.718;8.938;2023-03-14T03:35:33;2.33;;;2.22;;
26690;SDS011;14307;51.718;8.938;2023-03-14T03:38:00;4.07;;;2.60;;
26690;SDS011;14307;51.718;8.938;2023-03-14T03:40:29;4.93;;;3.15;;
26690;SDS011;14307;51.718;8.938;2023-03-14T03:42:55;3.92;;;3.70;;
26690;SDS011;14307;51.718;8.938;2023-03-14T03:45:22;4.35;;;4.05;;
26690;SDS011;14307;51.718;8.938;2023-03-14T03:47:53;4.90;;;4.10;;
26690;SDS011;14307;51.718;8.938;2023-03-14T03:50:21;9.23;;;4.68;;
26690;SDS011;14307;51.718;8.938;2023-03-14T03:52:48;4.90;;;4.70;;
26690;SDS011;14307;51.718;8.938;2023-03-14T03:55:15;4.15;;;3.95;;
26690;SDS011;14307;51.718;8.938;2023-03-14T03:57:41;5.35;;;4.90;;
26690;SDS011;14307;51.718;8.938;2023-03-14T04:00:09;4.95;;;4.60;;
26690;SDS011;14307;51.718;8.938;2023-03-14T04:02:41;4.80;;;4.60;;
26690;SDS011;14307;51.718;8.938;2023-03-14T04:05:11;4.80;;;4.53;;
26690;SDS011;14307;51.718;8.938;2023-03-14T04:07:44;4.60;;;4.40;;
26690;SDS011;14307;51.718;8.938;2023-03-14T04:10:15;4.85;;;4.53;;
26690;SDS011;14307;51.718;8.938;2023-03-14T04:12:56;7.60;;;4.57;;
26690;SDS011;14307;51.718;8.938;2023-03-14T04:15:26;5.45;;;5.05;;
26690;SDS011;14307;51.718;8.938;2023-03-14T04:17:56;4.32;;;3.97;;
26690;SDS011;14307;51.718;8.938;2023-03-14T04:20:24;3.60;;;3.40;;
26690;SDS011;14307;51.718;8.938;2023-03-14T04:22:51;3.85;;;3.60;;
26690;SDS011;14307;51.718;8.938;2023-03-14T04:25:18;11.40;;;7.63;;
26690;SDS011;14307;51.718;8.938;2023-03-14T04:27:50;8.15;;;6.22;;
26690;SDS011;14307;51.718;8.938;2023-03-14T04:30:22;4.80;;;3.40;;
26690;SDS011;14307;51.718;8.938;2023-03-14T04:32:56;3.50;;;3.30;;
26690;SDS011;14307;51.718;8.938;2023-03-14T04:35:24;3.83;;;3.50;;
26690;SDS011;14307;51.718;8.938;2023-03-14T04:37:58;7.37;;;3.30;;
26690;SDS011;14307;51.718;8.938;2023-03-14T04:40:26;4.30;;;3.45;;
26690;SDS011;14307;51.718;8.938;2023-03-14T04:42:57;4.43;;;4.07;;
26690;SDS011;14307;51.718;8.938;2023-03-14T04:45:24;4.63;;;3.40;;
26690;SDS011;14307;51.718;8.938;2023-03-14T04:47:51;6.70;;;4.18;;
26690;SDS011;14307;51.718;8.938;2023-03-14T04:50:18;6.57;;;4.10;;
26690;SDS011;14307;51.718;8.938;2023-03-14T04:52:46;6.28;;;4.95;;
26690;SDS011;14307;51.718;8.938;2023-03-14T04:55:13;4.35;;;3.95;;
26690;SDS011;14307;51.718;8.938;2023-03-14T04:57:40;5.03;;;4.30;;
26690;SDS011;14307;51.718;8.938;2023-03-14T05:00:08;4.13;;;3.83;;
26690;SDS011;14307;51.718;8.938;2023-03-14T05:02:57;4.53;;;3.55;;
26690;SDS011;14307;51.718;8.938;2023-03-14T05:05:27;4.13;;;3.75;;
26690;SDS011;14307;51.718;8.938;2023-03-14T05:08:17;3.92;;;3.60;;
26690;SDS011;14307;51.718;8.938;2023-03-14T05:11:01;7.03;;;4.60;;
26690;SDS011;14307;51.718;8.938;2023-03-14T05:13:37;3.70;;;3.40;;
26690;SDS011;14307;51.718;8.938;2023-03-14T05:16:17;5.47;;;3.80;;
26690;SDS011;14307;51.718;8.938;2023-03-14T05:18:53;5.40;;;4.57;;
26690;SDS011;14307;51.718;8.938;2023-03-14T05:21:39;13.88;;;5.15;;
26690;SDS011;14307;51.718;8.938;2023-03-14T05:27:09;4.38;;;3.97;;
26690;SDS011;14307;51.718;8.938;2023-03-14T05:30:03;14.20;;;5.82;;
26690;SDS011;14307;51.718;8.938;2023-03-14T05:32:49;6.15;;;5.45;;
26690;SDS011;14307;51.718;8.938;2023-03-14T05:35:48;8.75;;;5.32;;
26690;SDS011;14307;51.718;8.938;2023-03-14T05:38:27;6.55;;;5.57;;
26690;SDS011;14307;51.718;8.938;2023-03-14T05:41:09;8.85;;;5.90;;
26690;SDS011;14307;51.718;8.938;2023-03-14T05:43:36;7.93;;;5.30;;
26690;SDS011;14307;51.718;8.938;2023-03-14T05:46:12;5.43;;;4.93;;
26690;SDS011;14307;51.718;8.938;2023-03-14T05:48:59;6.95;;;5.00;;
26690;SDS011;14307;51.718;8.938;2023-03-14T05:51:58;8.55;;;4.25;;
26690;SDS011;14307;51.718;8.938;2023-03-14T05:54:44;15.50;;;5.10;;
26690;SDS011;14307;51.718;8.938;2023-03-14T05:57:42;6.65;;;3.92;;
26690;SDS011;14307;51.718;8.938;2023-03-14T06:00:20;5.47;;;3.60;;
26690;SDS011;14307;51.718;8.938;2023-03-14T06:02:59;7.55;;;4.15;;
26690;SDS011;14307;51.718;8.938;2023-03-14T06:05:30;10.13;;;3.47;;
26690;SDS011;14307;51.718;8.938;2023-03-14T06:08:00;10.43;;;4.22;;
26690;SDS011;14307;51.718;8.938;2023-03-14T06:10:29;11.20;;;4.65;;
26690;SDS011;14307;51.718;8.938;2023-03-14T06:12:56;5.85;;;4.25;;
26690;SDS011;14307;51.718;8.938;2023-03-14T06:15:23;10.10;;;5.22;;
26690;SDS011;14307;51.718;8.938;2023-03-14T06:17:53;13.93;;;5.60;;
26690;SDS011;14307;51.718;8.938;2023-03-14T06:20:21;8.88;;;5.32;;
26690;SDS011;14307;51.718;8.938;2023-03-14T06:22:48;8.85;;;6.10;;
26690;SDS011;14307;51.718;8.938;2023-03-14T06:25:15;6.90;;;5.70;;
26690;SDS011;14307;51.718;8.938;2023-03-14T06:27:44;19.10;;;6.72;;
26690;SDS011;14307;51.718;8.938;2023-03-14T06:30:11;12.43;;;7.13;;
26690;SDS011;14307;51.718;8.938;2023-03-14T06:32:38;8.52;;;6.93;;
26690;SDS011;14307;51.718;8.938;2023-03-14T06:35:08;8.95;;;6.15;;
26690;SDS011;14307;51.718;8.938;2023-03-14T06:37:39;9.13;;;6.70;;
26690;SDS011;14307;51.718;8.938;2023-03-14T06:40:06;9.18;;;7.10;;
26690;SDS011;14307;51.718;8.938;2023-03-14T06:42:50;7.88;;;7.38;;
26690;SDS011;14307;51.718;8.938;2023-03-14T06:45:19;9.73;;;8.75;;
26690;SDS011;14307;51.718;8.938;2023-03-14T06:47:46;9.32;;;8.40;;
26690;SDS011;14307;51.718;8.938;2023-03-14T06:50:14;9.10;;;8.38;;
26690;SDS011;14307;51.718;8.938;2023-03-14T06:52:42;9.50;;;8.48;;
26690;SDS011;14307;51.718;8.938;2023-03-14T06:55:16;11.95;;;9.10;;
26690;SDS011;14307;51.718;8.938;2023-03-14T06:57:46;13.52;;;11.80;;
26690;SDS011;14307;51.718;8.938;2023-03-14T07:00:13;10.38;;;9.48;;
26690;SDS011;14307;51.718;8.938;2023-03-14T07:02:40;10.95;;;10.00;;
26690;SDS011;14307;51.718;8.938;2023-03-14T07:05:20;10.65;;;10.05;;
26690;SDS011;14307;51.718;8.938;2023-03-14T07:07:47;10.57;;;9.95;;
26690;SDS011;14307;51.718;8.938;2023-03-14T07:10:14;11.15;;;10.55;;
26690;SDS011;14307;51.718;8.938;2023-03-14T07:12:40;12.60;;;11.80;;
26690;SDS011;14307;51.718;8.938;2023-03-14T07:15:07;11.85;;;11.25;;
26690;SDS011;14307;51.718;8.938;2023-03-14T07:17:45;12.45;;;11.82;;
26690;SDS011;14307;51.718;8.938;2023-03-14T07:20:14;11.85;;;11.25;;
26690;SDS011;14307;51.718;8.938;2023-03-14T07:22:41;12.02;;;11.35;;
26690;SDS011;14307;51.718;8.938;2023-03-14T07:25:08;12.88;;;12.27;;
26690;SDS011;14307;51.718;8.938;2023-03-14T07:27:38;12.13;;;11.45;;
26690;SDS011;14307;51.718;8.938;2023-03-14T07:30:05;12.43;;;11.82;;
26690;SDS011;14307;51.718;8.938;2023-03-14T07:32:32;16.75;;;15.90;;
26690;SDS011;14307;51.718;8.938;2023-03-14T07:35:02;13.35;;;12.85;;
26690;SDS011;14307;51.718;8.938;2023-03-14T07:37:31;14.65;;;14.05;;
26690;SDS011;14307;51.718;8.938;2023-03-14T07:40:00;12.00;;;11.52;;
26690;SDS011;14307;51.718;8.938;2023-03-14T07:42:29;13.93;;;13.38;;
26690;SDS011;14307;51.718;8.938;2023-03-14T07:45:17;11.90;;;11.27;;
26690;SDS011;14307;51.718;8.938;2023-03-14T07:47:43;11.57;;;11.05;;
26690;SDS011;14307;51.718;8.938;2023-03-14T07:50:10;15.38;;;14.57;;
26690;SDS011;14307;51.718;8.938;2023-03-14T07:52:37;15.50;;;14.55;;
26690;SDS011;14307;51.718;8.938;2023-03-14T07:55:03;14.45;;;13.85;;
26690;SDS011;14307;51.718;8.938;2023-03-14T07:57:30;14.52;;;13.93;;
26690;SDS011;14307;51.718;8.938;2023-03-14T07:59:57;17.27;;;16.48;;
26690;SDS011;14307;51.718;8.938;2023-03-14T08:02:24;16.10;;;15.40;;
26690;SDS011;14307;51.718;8.938;2023-03-14T08:04:51;18.95;;;18.02;;
26690;SDS011;14307;51.718;8.938;2023-03-14T08:07:17;16.33;;;15.70;;
26690;SDS011;14307;51.718;8.938;2023-03-14T08:09:44;17.45;;;16.55;;
26690;SDS011;14307;51.718;8.938;2023-03-14T08:12:10;13.48;;;12.88;;
26690;SDS011;14307;51.718;8.938;2023-03-14T08:14:37;11.23;;;10.82;;
26690;SDS011;14307;51.718;8.938;2023-03-14T08:17:04;10.90;;;10.43;;
26690;SDS011;14307;51.718;8.938;2023-03-14T08:19:31;11.95;;;11.25;;
26690;SDS011;14307;51.718;8.938;2023-03-14T08:21:57;11.27;;;10.77;;
26690;SDS011;14307;51.718;8.938;2023-03-14T08:24:24;11.32;;;10.93;;
26690;SDS011;14307;51.718;8.938;2023-03-14T08:26:51;12.93;;;12.40;;
26690;SDS011;14307;51.718;8.938;2023-03-14T08:29:18;14.20;;;13.57;;
26690;SDS011;14307;51.718;8.938;2023-03-14T08:31:45;10.75;;;10.35;;
26690;SDS011;14307;51.718;8.938;2023-03-14T08:34:11;10.75;;;10.35;;
26690;SDS011;14307;51.718;8.938;2023-03-14T08:36:38;14.70;;;13.43;;
26690;SDS011;14307;51.718;8.938;2023-03-14T08:39:05;13.40;;;12.80;;
26690;SDS011;14307;51.718;8.938;2023-03-14T08:41:34;13.68;;;12.98;;
26690;SDS011;14307;51.718;8.938;2023-03-14T08:44:06;11.73;;;11.32;;
26690;SDS011;14307;51.718;8.938;2023-03-14T08:46:34;14.80;;;14.30;;
26690;SDS011;14307;51.718;8.938;2023-03-14T08:49:03;14.77;;;14.07;;
26690;SDS011;14307;51.718;8.938;2023-03-14T08:51:30;12.50;;;12.10;;
26690;SDS011;14307;51.718;8.938;2023-03-14T08:53:57;13.52;;;13.02;;
26690;SDS011;14307;51.718;8.938;2023-03-14T08:56:23;11.30;;;10.90;;
26690;SDS011;14307;51.718;8.938;2023-03-14T08:58:51;11.57;;;10.98;;
26690;SDS011;14307;51.718;8.938;2023-03-14T09:01:18;12.20;;;11.70;;
26690;SDS011;14307;51.718;8.938;2023-03-14T09:03:45;10.95;;;10.55;;
26690;SDS011;14307;51.718;8.938;2023-03-14T09:06:14;12.13;;;11.73;;
26690;SDS011;14307;51.718;8.938;2023-03-14T09:08:43;13.70;;;13.07;;
26690;SDS011;14307;51.718;8.938;2023-03-14T09:11:11;13.30;;;12.80;;
26690;SDS011;14307;51.718;8.938;2023-03-14T09:13:39;12.70;;;12.00;;
26690;SDS011;14307;51.718;8.938;2023-03-14T09:16:06;13.30;;;12.75;;
26690;SDS011;14307;51.718;8.938;2023-03-14T09:18:33;13.27;;;12.77;;
26690;SDS011;14307;51.718;8.938;2023-03-14T09:21:00;13.32;;;12.82;;
26690;SDS011;14307;51.718;8.938;2023-03-14T09:23:27;13.18;;;12.68;;
26690;SDS011;14307;51.718;8.938;2023-03-14T09:25:54;11.70;;;11.20;;
26690;SDS011;14307;51.718;8.938;2023-03-14T09:28:22;12.07;;;11.38;;
26690;SDS011;14307;51.718;8.938;2023-03-14T09:30:48;11.73;;;11.23;;
26690;SDS011;14307;51.718;8.938;2023-03-14T09:33:16;11.23;;;10.73;;
26690;SDS011;14307;51.718;8.938;2023-03-14T09:35:43;11.88;;;11.27;;
26690;SDS011;14307;51.718;8.938;2023-03-14T09:38:09;11.95;;;11.45;;
26690;SDS011;14307;51.718;8.938;2023-03-14T09:40:36;14.70;;;14.10;;
26690;SDS011;14307;51.718;8.938;2023-03-14T09:43:04;18.10;;;17.30;;
26690;SDS011;14307;51.718;8.938;2023-03-14T09:45:33;12.35;;;11.77;;
26690;SDS011;14307;51.718;8.938;2023-03-14T09:48:03;11.90;;;11.40;;
26690;SDS011;14307;51.718;8.938;2023-03-14T09:50:42;13.52;;;12.98;;
26690;SDS011;14307;51.718;8.938;2023-03-14T09:53:17;13.30;;;12.80;;
26690;SDS011;14307;51.718;8.938;2023-03-14T09:55:47;13.73;;;13.13;;
26690;SDS011;14307;51.718;8.938;2023-03-14T09:58:19;13.00;;;12.40;;
26690;SDS011;14307;51.718;8.938;2023-03-14T10:00:48;13.05;;;12.45;;
26690;SDS011;14307;51.718;8.938;2023-03-14T10:03:21;12.32;;;11.63;;
26690;SDS011;14307;51.718;8.938;2023-03-14T10:05:58;12.13;;;11.63;;
26690;SDS011;14307;51.718;8.938;2023-03-14T10:08:26;15.10;;;14.50;;
26690;SDS011;14307;51.718;8.938;2023-03-14T10:10:53;14.93;;;14.32;;
26690;SDS011;14307;51.718;8.938;2023-03-14T10:13:22;16.25;;;15.38;;
26690;SDS011;14307;51.718;8.938;2023-03-14T10:15:58;18.33;;;17.00;;
26690;SDS011;14307;51.718;8.938;2023-03-14T10:18:27;16.83;;;16.02;;
26690;SDS011;14307;51.718;8.938;2023-03-14T10:21:06;16.15;;;15.35;;
26690;SDS011;14307;51.718;8.938;2023-03-14T10:23:42;16.63;;;15.82;;
26690;SDS011;14307;51.718;8.938;2023-03-14T10:31:46;11.70;;;11.30;;
26690;SDS011;14307;51.718;8.938;2023-03-14T10:34:17;10.85;;;10.35;;
26690;SDS011;14307;51.718;8.938;2023-03-14T10:36:51;10.50;;;10.10;;
26690;SDS011;14307;51.718;8.938;2023-03-14T10:39:31;8.18;;;7.88;;
26690;SDS011;14307;51.718;8.938;2023-03-14T10:42:42;4.70;;;4.50;;
26690;SDS011;14307;51.718;8.938;2023-03-14T10:44:56;3.28;;;3.00;;
26690;SDS011;14307;51.718;8.938;2023-03-14T10:47:27;3.00;;;2.70;;
26690;SDS011;14307;51.718;8.938;2023-03-14T10:49:55;2.25;;;2.15;;
26690;SDS011;14307;51.718;8.938;2023-03-14T10:52:26;2.00;;;1.90;;
26690;SDS011;14307;51.718;8.938;2023-03-14T10:55:09;1.77;;;1.67;;
26690;SDS011;14307;51.718;8.938;2023-03-14T10:57:40;2.33;;;2.22;;
26690;SDS011;14307;51.718;8.938;2023-03-14T11:00:15;2.33;;;1.80;;
26690;SDS011;14307;51.718;8.938;2023-03-14T11:08:09;1.85;;;1.70;;
26690;SDS011;14307;51.718;8.938;2023-03-14T11:10:45;4.70;;;2.42;;
26690;SDS011;14307;51.718;8.938;2023-03-14T11:13:22;4.43;;;2.15;;
26690;SDS011;14307;51.718;8.938;2023-03-14T11:18:51;1.42;;;1.33;;
26690;SDS011;14307;51.718;8.938;2023-03-14T11:35:28;2.33;;;1.13;;
26690;SDS011;14307;51.718;8.938;2023-03-14T11:40:47;2.35;;;2.15;;
26690;SDS011;14307;51.718;8.938;2023-03-14T11:43:20;1.95;;;1.50;;
26690;SDS011;14307;51.718;8.938;2023-03-14T11:46:05;2.88;;;1.92;;
26690;SDS011;14307;51.718;8.938;2023-03-14T11:51:22;1.90;;;1.70;;
26690;SDS011;14307;51.718;8.938;2023-03-14T11:53:57;3.85;;;2.25;;
26690;SDS011;14307;51.718;8.938;2023-03-14T11:56:37;2.72;;;2.08;;
26690;SDS011;14307;51.718;8.938;2023-03-14T11:59:19;1.98;;;1.52;;
26690;SDS011;14307;51.718;8.938;2023-03-14T12:01:55;1.95;;;1.65;;
26690;SDS011;14307;51.718;8.938;2023-03-14T12:04:32;3.20;;;1.98;;
26690;SDS011;14307;51.718;8.938;2023-03-14T12:07:06;3.63;;;2.05;;
26690;SDS011;14307;51.718;8.938;2023-03-14T12:09:40;2.88;;;1.23;;
26690;SDS011;14307;51.718;8.938;2023-03-14T12:12:10;0.93;;;0.88;;
26690;SDS011;14307;51.718;8.938;2023-03-14T12:14:46;1.23;;;1.00;;
26690;SDS011;14307;51.718;8.938;2023-03-14T12:17:39;1.30;;;0.95;;
26690;SDS011;14307;51.718;8.938;2023-03-14T12:23:10;1.20;;;1.10;;
26690;SDS011;14307;51.718;8.938;2023-03-14T12:25:38;0.90;;;0.90;;
26690;SDS011;14307;51.718;8.938;2023-03-14T12:30:48;1.20;;;1.20;;
26690;SDS011;14307;51.718;8.938;2023-03-14T12:35:45;1.70;;;1.60;;
26690;SDS011;14307;51.718;8.938;2023-03-14T12:43:36;2.08;;;1.98;;
26690;SDS011;14307;51.718;8.938;2023-03-14T12:51:35;2.50;;;2.30;;
26690;SDS011;14307;51.718;8.938;2023-03-14T12:57:04;8.13;;;3.28;;
26690;SDS011;14307;51.718;8.938;2023-03-14T12:59:51;5.80;;;4.80;;
26690;SDS011;14307;51.718;8.938;2023-03-14T13:05:03;5.47;;;3.72;;
26690;SDS011;14307;51.718;8.938;2023-03-14T13:12:57;9.25;;;5.10;;
26690;SDS011;14307;51.718;8.938;2023-03-14T13:15:54;19.27;;;5.32;;
26690;SDS011;14307;51.718;8.938;2023-03-14T13:21:07;7.20;;;5.50;;
26690;SDS011;14307;51.718;8.938;2023-03-14T13:23:53;9.93;;;5.32;;
26690;SDS011;14307;51.718;8.938;2023-03-14T13:26:25;10.82;;;6.35;;
26690;SDS011;14307;51.718;8.938;2023-03-14T13:28:59;9.30;;;7.40;;
26690;SDS011;14307;51.718;8.938;2023-03-14T13:31:25;17.50;;;6.55;;
26690;SDS011;14307;51.718;8.938;2023-03-14T13:33:59;11.27;;;5.93;;
26690;SDS011;14307;51.718;8.938;2023-03-14T13:38:58;13.20;;;7.22;;
26690;SDS011;14307;51.718;8.938;2023-03-14T13:41:26;20.55;;;8.68;;
26690;SDS011;14307;51.718;8.938;2023-03-14T13:44:05;9.68;;;8.40;;
26690;SDS011;14307;51.718;8.938;2023-03-14T13:46:34;20.23;;;8.63;;
26690;SDS011;14307;51.718;8.938;2023-03-14T13:49:03;11.95;;;8.55;;
26690;SDS011;14307;51.718;8.938;2023-03-14T13:51:31;18.80;;;9.32;;
26690;SDS011;14307;51.718;8.938;2023-03-14T13:54:02;11.57;;;7.70;;
26690;SDS011;14307;51.718;8.938;2023-03-14T13:56:32;11.77;;;6.75;;
26690;SDS011;14307;51.718;8.938;2023-03-14T13:58:59;15.30;;;7.85;;
26690;SDS011;14307;51.718;8.938;2023-03-14T14:01:35;12.07;;;7.95;;
26690;SDS011;14307;51.718;8.938;2023-03-14T14:04:08;12.40;;;7.47;;
26690;SDS011;14307;51.718;8.938;2023-03-14T14:06:52;19.73;;;8.02;;
26690;SDS011;14307;51.718;8.938;2023-03-14T14:09:20;15.70;;;7.72;;
26690;SDS011;14307;51.718;8.938;2023-03-14T14:11:52;9.02;;;6.55;;
26690;SDS011;14307;51.718;8.938;2023-03-14T14:14:52;6.25;;;5.15;;
26690;SDS011;14307;51.718;8.938;2023-03-14T14:17:36;9.05;;;4.53;;
26690;SDS011;14307;51.718;8.938;2023-03-14T14:20:08;17.73;;;5.00;;
26690;SDS011;14307;51.718;8.938;2023-03-14T14:22:48;21.38;;;5.72;;
26690;SDS011;14307;51.718;8.938;2023-03-14T14:25:16;16.70;;;6.20;;
26690;SDS011;14307;51.718;8.938;2023-03-14T14:27:44;17.38;;;4.93;;
26690;SDS011;14307;51.718;8.938;2023-03-14T14:32:46;19.67;;;5.55;;
26690;SDS011;14307;51.718;8.938;2023-03-14T14:35:33;16.33;;;5.45;;
26690;SDS011;14307;51.718;8.938;2023-03-14T14:38:02;17.48;;;5.85;;
26690;SDS011;14307;51.718;8.938;2023-03-14T14:40:43;23.63;;;6.38;;
26690;SDS011;14307;51.718;8.938;2023-03-14T14:43:12;26.23;;;5.95;;
26690;SDS011;14307;51.718;8.938;2023-03-14T14:45:48;20.08;;;6.93;;
26690;SDS011;14307;51.718;8.938;2023-03-14T14:48:22;22.40;;;6.00;;
26690;SDS011;14307;51.718;8.938;2023-03-14T14:50:54;23.15;;;5.90;;
26690;SDS011;14307;51.718;8.938;2023-03-14T14:53:44;21.95;;;6.82;;
26690;SDS011;14307;51.718;8.938;2023-03-14T14:56:18;25.60;;;6.75;;
26690;SDS011;14307;51.718;8.938;2023-03-14T14:58:49;35.10;;;7.07;;
26690;SDS011;14307;51.718;8.938;2023-03-14T15:03:49;27.55;;;6.30;;
26690;SDS011;14307;51.718;8.938;2023-03-14T15:06:18;27.48;;;7.22;;
26690;SDS011;14307;51.718;8.938;2023-03-14T15:08:46;26.75;;;7.22;;
26690;SDS011;14307;51.718;8.938;2023-03-14T15:11:18;20.95;;;7.30;;
26690;SDS011;14307;51.718;8.938;2023-03-14T15:13:49;22.40;;;7.85;;
26690;SDS011;14307;51.718;8.938;2023-03-14T15:16:17;21.77;;;7.32;;
26690;SDS011;14307;51.718;8.938;2023-03-14T15:18:52;18.45;;;6.93;;
26690;SDS011;14307;51.718;8.938;2023-03-14T15:21:24;24.83;;;7.75;;
26690;SDS011;14307;51.718;8.938;2023-03-14T15:23:52;19.05;;;8.23;;
26690;SDS011;14307;51.718;8.938;2023-03-14T15:26:20;24.10;;;9.27;;
26690;SDS011;14307;51.718;8.938;2023-03-14T15:28:48;29.90;;;9.77;;
26690;SDS011;14307;51.718;8.938;2023-03-14T15:31:16;27.48;;;11.13;;
26690;SDS011;14307;51.718;8.938;2023-03-14T15:33:44;30.05;;;13.32;;
26690;SDS011;14307;51.718;8.938;2023-03-14T15:36:31;21.90;;;11.27;;
26690;SDS011;14307;51.718;8.938;2023-03-14T15:38:59;24.27;;;11.98;;
26690;SDS011;14307;51.718;8.938;2023-03-14T15:41:27;20.48;;;14.38;;
26690;SDS011;14307;51.718;8.938;2023-03-14T15:43:54;26.20;;;14.90;;
26690;SDS011;14307;51.718;8.938;2023-03-14T15:46:21;30.10;;;16.75;;
26690;SDS011;14307;51.718;8.938;2023-03-14T15:48:49;20.98;;;19.00;;
26690;SDS011;14307;51.718;8.938;2023-03-14T15:51:17;26.92;;;21.67;;
26690;SDS011;14307;51.718;8.938;2023-03-14T15:53:44;31.05;;;24.65;;
26690;SDS011;14307;51.718;8.938;2023-03-14T15:56:11;28.88;;;24.65;;
26690;SDS011;14307;51.718;8.938;2023-03-14T15:58:43;32.45;;;23.90;;
26690;SDS011;14307;51.718;8.938;2023-03-14T16:01:13;27.88;;;25.23;;
26690;SDS011;14307;51.718;8.938;2023-03-14T16:03:42;25.58;;;22.60;;
26690;SDS011;14307;51.718;8.938;2023-03-14T16:06:11;25.60;;;22.60;;
26690;SDS011;14307;51.718;8.938;2023-03-14T16:08:38;25.15;;;22.30;;
26690;SDS011;14307;51.718;8.938;2023-03-14T16:11:05;31.23;;;24.30;;
26690;SDS011;14307;51.718;8.938;2023-03-14T16:13:32;30.50;;;27.52;;
26690;SDS011;14307;51.718;8.938;2023-03-14T16:16:00;30.15;;;27.55;;
26690;SDS011;14307;51.718;8.938;2023-03-14T16:18:29;29.20;;;26.48;;
26690;SDS011;14307;51.718;8.938;2023-03-14T16:20:59;28.58;;;26.15;;
26690;SDS011;14307;51.718;8.938;2023-03-14T16:23:33;31.33;;;27.67;;